Grasslands, Zimbabwe

7:29 AM CAT on July 28, 2016 (GMT +0200)
Harare International | | Change Station

Elev 4856 ft 17.92 °S, 31.13 °E | Updated 29 minutes ago

Clear
Clear
50 °F
Feels Like 50 °F
N
2
Wind Variable Wind from Variable

Today
High -- | Low -- °F
--% Chance of Precip.
Yesterday
High -- | Low -- °F
Precip. -- in
Pressure 30.24 in
Visibility -9999.0 miles
Clouds
Dew Point 46 °F
Humidity 87%
Rainfall 0.00 in
Snow Depth Not available.
6:22 AM 5:38 PM
Waning Crescent, 36% visible
METAR FVHA 280500Z VRB02KT CAVOK 10/08 Q1024 NOSIG
Pressure 30.24 in
Visibility -9999.0 miles
Clouds
Dew Point 46 °F
Humidity 87%
Rainfall 0.00 in
Snow Depth Not available.
6:22 AM 5:38 PM
Waning Crescent, 36% visible
METAR FVHA 280500Z VRB02KT CAVOK 10/08 Q1024 NOSIG

10-Day Weather Forecast

No radar image for this location.
×

Almanac

Astronomy

Jul. 28, 2016 Rise Set
Actual Time
Civil Twilight
Nautical Twilight
Astronomical Twilight
Moon
Length of Visible Light
Length of Day
Tomorrow will be .
, % of the Moon is Illuminated

Today's Extremes

Country Highs Country Lows

Community

WunderPhotos

Upload Photos

1,928,061 photos uploaded!

WunderBlog® & News

Nearby

Air Quality

  Air Quality AQ Index Pollutant
Not available.

Snow Depth

Station Depth Elevation

Earthquake Activity

City Distance Mag. Time & Date
Minimum magnitude displayed is 2.5.

Coastal Water Temperatures

Place Temperature

Stations

Nearby Weather Stations

Station Location Temp. Windchill Dew Point Humidity Wind Precip. Elev Updated Type